Aviation Digital Data Service (ADDS)

Output produced by METARs form (1204 UTC 21 April 2021)
found at http://www.aviationweather.gov/metar/data/
 
KRNH 211126Z 2112/2212 31007KT P6SM OVC070 
     FM220300 27004KT P6SM FEW120 
     FM220900 22003KT P6SM SKC